Home > Products > Valid Products > TAF

000
FTUS44 KEWX 250800 AAA
TAFAUS
TAF AMD
KAUS 250818Z 2508/2612 00000KT P6SM SKC
     FM251500 22005KT P6SM FEW050
     FM252100 16005KT P6SM FEW050
     FM260600 21004KT P6SM SKC=



000
FTUS44 KEWX 250500
TAFSAT
TAF
KSAT 250530Z 2506/2612 12004KT P6SM SKC
     FM251100 22005KT P6SM FEW050
     FM252200 16005KT P6SM FEW050
     FM260600 22005KT P6SM SKC=



000
FTUS44 KEWX 250500
TAFAUS
TAF
KAUS 250530Z 2506/2612 22004KT P6SM FEW050
     FM252100 16005KT P6SM FEW050
     FM260600 21004KT P6SM SKC=



000
FTUS44 KEWX 250500
TAFDRT
TAF
KDRT 250530Z 2506/2606 07003KT P6SM SKC
     FM251600 15009KT P6SM FEW050
     FM260100 10005KT P6SM SKC=



000
FTUS44 KEWX 242300
TAFSAT
TAF
KSAT 242320Z 2500/2606 15005KT P6SM FEW050
     FM250800 21004KT P6SM SKC
     FM251900 19006KT P6SM SKC=



000
FTUS44 KEWX 242300
TAFDRT
TAF
KDRT 242320Z 2500/2524 12006KT P6SM SKC=



000
FTUS44 KEWX 242300
TAFAUS
TAF
KAUS 242320Z 2500/2606 15005KT P6SM FEW050
     FM250600 21003KT P6SM FEW050
     FM252200 18005KT P6SM SKC=



000
FTUS44 KEWX 241700
TAFSAT
TAF
KSAT 241730Z 2418/2524 16005KT P6SM FEW050
     FM250400 VRB03KT P6SM SKC
     FM251400 24005KT P6SM SKC
     FM252000 17006KT P6SM SKC=



000
FTUS44 KEWX 241700
TAFAUS
TAF
KAUS 241730Z 2418/2524 18005KT P6SM FEW050
     FM250800 21004KT P6SM SKC
     FM252000 16006KT P6SM SKC=



000
FTUS44 KEWX 241700
TAFDRT
TAF
KDRT 241730Z 2418/2518 14006KT P6SM SKC
     FM250200 10004KT P6SM SKC
     FM251500 14006KT P6SM SKC=



000
FTUS44 KEWX 241100
TAFDRT
TAF
KDRT 241120Z 2412/2512 06005KT P6SM FEW035
     FM241700 15006KT P6SM SKC
     FM250200 11004KT P6SM SKC=



000
FTUS44 KEWX 241100
TAFAUS
TAF
KAUS 241120Z 2412/2518 VRB03KT P6SM FEW050
     FM242100 14005KT P6SM FEW050
     FM250800 21004KT P6SM SKC=



000
FTUS44 KEWX 241100
TAFSAT
TAF
KSAT 241120Z 2412/2518 VRB03KT P6SM SKC
     FM241600 16004KT P6SM FEW050
     FM250400 VRB03KT P6SM SKC=



000
FTUS44 KEWX 240800 AAA
TAFAUS
TAF AMD
KAUS 240838Z 2409/2512 00000KT P6SM FEW050
     FM241900 14005KT P6SM FEW050
     FM250800 19005KT P6SM SKC=



000
FTUS44 KEWX 240500
TAFAUS
TAF
KAUS 240522Z 2406/2512 00000KT P6SM SKC
     FM241600 15005KT P6SM FEW050=



000
FTUS44 KEWX 240500
TAFDRT
TAF
KDRT 240522Z 2406/2506 09005KT P6SM SKC
      TEMPO 2412/2416 SCT015
     FM241700 15006KT P6SM SKC=



000
FTUS44 KEWX 240500
TAFSAT
TAF
KSAT 240522Z 2406/2512 00000KT P6SM SKC
     FM241600 16004KT P6SM FEW050=



000
FTUS44 KEWX 232300
TAFDRT
TAF
KDRT 232320Z 2400/2424 12005KT P6SM SKC
     FM241700 15006KT P6SM SKC=



000
FTUS44 KEWX 232300
TAFSAT
TAF
KSAT 232320Z 2400/2506 VRB03KT P6SM FEW060
     FM241600 16005KT P6SM FEW050=



000
FTUS44 KEWX 232300
TAFAUS
TAF
KAUS 232320Z 2400/2506 VRB04KT P6SM FEW050 SCT150
     FM241500 15005KT P6SM FEW050=



000
FTUS44 KEWX 232000 AAB
TAFDRT
TAF AMD
KDRT 232044Z 2321/2418 14009KT P6SM SCT030 SCT060
     FM240100 09005KT P6SM SCT080
     FM241600 14006KT P6SM FEW250=



000
FTUS44 KEWX 231800 CCA
TAFDRT
TAF COR
KDRT 231816Z 2318/2418 12006KT P6SM FEW015 BKN060
     FM240100 09005KT P6SM SCT250
     FM241600 14006KT P6SM FEW250=



000
FTUS44 KEWX 231800 CCA
TAFDRT
TAF COR
KDRT 231816Z 2318/2418 12006KT P6SM FEW015 BKN060
     FM240100 09005KT P6SM SCT250
     FM241600 14006KT P6SM FEW250=



000
FTUS44 KEWX 231700 AAA
TAFDRT
TAF AMD
KDRT 231759Z 2318/2418 12006KT P6SM FEW015 BKN060
      TEMPO 2318/2320 BKN020
     FM240100 09005KT P6SM SCT250
     FM241600 14006KT P6SM FEW250=



000
FTUS44 KEWX 231700 AAA
TAFDRT
TAF AMD
KDRT 231759Z 2318/2418 12006KT P6SM FEW015 BKN060
      TEMPO 2318/2320 BKN020
     FM240100 09005KT P6SM SCT250
     FM241600 14006KT P6SM FEW250=



000
FTUS44 KEWX 231700
TAFAUS
TAF
KAUS 231725Z 2318/2424 07007KT P6SM SCT050 SCT200
     FM240100 VRB03KT P6SM FEW250
     FM241600 10006KT P6SM FEW250=



000
FTUS44 KEWX 231700
TAFSAT
TAF
KSAT 231725Z 2318/2424 09007KT P6SM SCT050 SCT120
     FM240400 VRB03KT P6SM FEW250
     FM241700 11006KT P6SM FEW250=



000
FTUS44 KEWX 231700
TAFDRT
TAF
KDRT 231725Z 2318/2418 12006KT P6SM SCT030 BKN060
      TEMPO 2318/2320 BKN020
     FM240100 09005KT P6SM SCT250
     FM241600 14006KT P6SM FEW250=



000
FTUS44 KEWX 231400 AAA
TAFDRT
TAF AMD
KDRT 231405Z 2314/2412 08006KT P6SM OVC020
     FM231600 13006KT P6SM BKN050
     FM240600 10005KT P6SM SCT060=



000
FTUS44 KEWX 231100 RRA
TAFDRT
TAF
KDRT 231147Z 2312/2412 VRB03KT 4SM BR BKN060
      TEMPO 2312/2314 2SM BR FEW050
     FM231600 13006KT P6SM BKN050
     FM240600 10005KT P6SM SCT060=



000
FTUS44 KEWX 231100 RRA
TAFSAT
TAF
KSAT 231147Z 2312/2418 VRB03KT P6SM SCT060 BKN100
     FM232000 09005KT P6SM BKN040 BKN150
     FM240400 VRB03KT P6SM FEW120=



000
FTUS44 KEWX 231100 RRA
TAFAUS
TAF
KAUS 231147Z 2312/2418 VRB03KT P6SM FEW035 BKN060
      TEMPO 2312/2314 4SM BR
     FM232000 05005KT P6SM SCT050 SCT120
     FM240200 VRB03KT P6SM FEW120=



000
FTUS44 KEWX 230600 AAA
TAFDRT
TAF AMD
KDRT 230639Z 2307/2406 VRB03KT 3SM BR SCT050
      TEMPO 2307/2309 1SM BR
     FM230900 VRB03KT 4SM BR BKN060
     FM231100 11004KT 6SM BR OVC015
     FM231700 14006KT P6SM BKN025
     FM231800 16006KT P6SM OVC035=



000
FTUS44 KEWX 230500
TAFSAT
TAF
KSAT 230527Z 2306/2412 VRB03KT P6SM SCT060 BKN200
     FM231200 07003KT P6SM FEW035 OVC060
     FM232000 11005KT P6SM BKN040 BKN200=



000
FTUS44 KEWX 230500
TAFAUS
TAF
KAUS 230527Z 2306/2412 VRB03KT P6SM SCT060 BKN250
     FM231200 06005KT P6SM FEW035 OVC060
     FM240200 13003KT P6SM SCT040 SCT250=



000
FTUS44 KEWX 230500
TAFDRT
TAF
KDRT 230527Z 2306/2406 11004KT 5SM BR OVC050
     FM231100 11004KT 4SM BR OVC015
     FM231700 14006KT P6SM BKN025
     FM231800 16006KT P6SM OVC035=



000
FTUS44 KEWX 222300
TAFDRT
TAF
KDRT 222320Z 2300/2324 VRB04KT P6SM -RA FEW090 BKN120
     FM230500 11004KT 5SM BR OVC050
     FM231100 11004KT 4SM BR OVC015
     FM231700 14008KT P6SM BKN025=



000
FTUS44 KEWX 222300
TAFSAT
TAF
KSAT 222320Z 2300/2406 12005KT P6SM FEW040 BKN110
     FM230600 VRB03KT P6SM FEW035 BKN200
     FM231800 13006KT P6SM SCT040 SCT250=



000
FTUS44 KEWX 222300
TAFAUS
TAF
KAUS 222320Z 2300/2406 10004KT P6SM FEW040 SCT250
     FM230600 VRB03KT P6SM FEW035 SCT250
     FM231800 09006KT P6SM SCT040 SCT250=



000
FTUS44 KEWX 222100 AAC
TAFDRT
TAF AMD
KDRT 222138Z 2222/2318 VRB03KT P6SM OVC080
      TEMPO 2222/2223 3SM -RA BR
     FM230100 09006KT P6SM BKN070 BKN200
     FM231100 09006KT P6SM BKN015
     FM231700 14008KT P6SM BKN025=



000
FTUS44 KEWX 222000 AAB
TAFDRT
TAF AMD
KDRT 222043Z 2221/2318 13008KT P6SM FEW030 OVC080
      TEMPO 2221/2223 2SM -RA BR
     FM230100 09006KT P6SM BKN070 BKN200
     FM231100 09006KT P6SM BKN015
     FM231700 14008KT P6SM BKN025=



000
FTUS44 KEWX 221900 CCA
TAFDRT
TAF COR
KDRT 221925Z 2219/2318 13008KT P6SM FEW030 OVC080
      TEMPO 2219/2223 -RA
     FM230100 09006KT P6SM BKN070 BKN200
     FM231100 09006KT P6SM BKN015
     FM231700 14008KT P6SM BKN025=



000
FTUS44 KEWX 221900 AAA
TAFDRT
TAF AMD
KDRT 221915Z 2219/2318 13008KT P6SM FEW030 OVC080
      TEMPO 2219/2223 -RA BKN030
     FM230100 09006KT P6SM BKN070 BKN200
     FM231100 09006KT P6SM BKN015
     FM231700 14008KT P6SM BKN025=



000
FTUS44 KEWX 221700
TAFDRT
TAF
KDRT 221729Z 2218/2318 13008KT P6SM FEW030 OVC080
     FM230100 09006KT P6SM BKN070 BKN200
     FM231100 09006KT P6SM BKN015
     FM231700 14008KT P6SM BKN025=



000
FTUS44 KEWX 221700
TAFAUS
TAF
KAUS 221729Z 2218/2324 10007KT P6SM SCT150 SCT250
     FM230100 VRB03KT P6SM FEW035 BKN120
     FM231800 08006KT P6SM SCT250=



000
FTUS44 KEWX 221700
TAFSAT
TAF
KSAT 221729Z 2218/2324 11011KT P6SM FEW050 BKN150
     FM230500 VRB03KT P6SM FEW035 BKN120
     FM231600 11009KT P6SM SCT250=



000
FTUS44 KEWX 221700
TAFSAT
TAF
KSAT 221729Z 2218/2324 11011KT P6SM FEW050 BKN150
     FM230500 VRB03KT P6SM FEW035 BKN120
     FM231600 11009KT P6SM SCT250=



000
FTUS44 KEWX 221700
TAFAUS
TAF
KAUS 221729Z 2218/2324 10007KT P6SM SCT150 SCT250
     FM230100 VRB03KT P6SM FEW035 BKN120
     FM231800 08006KT P6SM SCT250=



000
FTUS44 KEWX 221700
TAFDRT
TAF
KDRT 221729Z 2218/2318 13008KT P6SM FEW030 OVC080
     FM230100 09006KT P6SM BKN070 BKN200
     FM231100 09006KT P6SM BKN015
     FM231700 14008KT P6SM BKN025=



000
FTUS44 KEWX 221200 AAA
TAFDRT
TAF AMD
KDRT 221246Z 2213/2312 09007KT P6SM FEW025 BKN060
     FM221600 13008KT P6SM BKN060 BKN150
     FM230100 09006KT P6SM BKN070 BKN200=



000
FTUS44 KEWX 221100
TAFSAT
TAF
KSAT 221136Z 2212/2318 VRB04KT P6SM FEW025 BKN150
     FM221900 11007KT P6SM FEW040 BKN150
     FM230600 VRB03KT P6SM FEW035 BKN120=



000
FTUS44 KEWX 221100
TAFDRT
TAF
KDRT 221136Z 2212/2312 09007KT 6SM BR SCT025 BKN060
      TEMPO 2212/2214 5SM BR BKN025
     FM221600 13008KT P6SM FEW025 BKN060
     FM230100 09006KT P6SM BKN070 BKN200=



000
FTUS44 KEWX 221100
TAFAUS
TAF
KAUS 221136Z 2212/2318 VRB04KT P6SM SCT025 BKN150
     FM221800 09006KT P6SM SCT040 BKN150
     FM230700 VRB03KT P6SM FEW035 BKN120=



    US Dept of Commerce
    National Oceanic and Atmospheric Administration
    National Weather Service
    1325 East West Highway
    Silver Spring, MD 20910
    Page Author: NWS Internet Services Team
Disclaimer
Information Quality
Credits
Glossary
Privacy Policy
Freedom of Information Act (FOIA)
About Us
Career Opportunities